• Join FlightAware (Why Join?)
  • Login
  • US Flag 
09:47AM EDT


 

Airport Tracker/Info


-or-


 

Live Flight TrackerFlight Track Log ✈ N152SR ✈ 12-Jul-2013 ✈ KMTP - KCDW

Flight Track Log - Related Links

Times and Time Zones

All times are in EDT time to prevent confusion due to time zone crossing. See the N152SR flight status page for this flight to view local times or setup timezone preferences in your user account.

Time Position Orientation Groundspeed Altitude Reporting Facility
EDT Latitude Longitude Course Direction KTS MPH feet Rate Location/Type
04:23PM 41.0391 -72.4077 264° West  Level Estimated
04:24PM 41.0343 -72.4682 264° West  Level Estimated
04:25PM 41.0295 -72.5286 264° West  Level Estimated
04:26PM 41.0246 -72.5891 264° West  Level Estimated
04:27PM 41.0197 -72.6496 264° West  Level Estimated
04:27PM 41.1367 -71.9908 313° West 134 154 3,000  Level Boston Center
04:28PM 41.0148 -72.7100 264° West  Level Estimated
04:28PM 41.1681 -72.0319 315° West 161 185 3,900  Level Boston Center
04:29PM 41.0098 -72.7705 264° West  Level Estimated
04:29PM 41.2097 -72.0675 327° Northwest 151 174 4,700  Level Boston Center
04:30PM 41.0048 -72.8309 264° West  Level Estimated
04:30PM 41.2411 -72.1006 322° Northwest 142 163 5,600  Level Boston Center
04:31PM 40.9998 -72.8913 264° West  Level Estimated
04:31PM 41.2725 -72.1364 319° Northwest 150 173 6,100  Level Boston Center
04:32PM 41.3122 -72.1831 319° Northwest 190 219 6,000 -60 Descending Boston Center
04:33PM 41.3497 -72.2272 319° Northwest 182 209 6,000  Level Boston Center
04:34PM 41.3875 -72.2658 323° Northwest 180 207 6,100  Climbing Boston Center
04:35PM 41.4292 -72.3128 320° Northwest 198 228 6,000 -60 Descending Boston Center
04:36PM 41.4708 -72.3597 320° Northwest 184 212 6,000  Level Boston Center
04:37PM 41.5083 -72.4014 320° Northwest 176 203 6,100  Climbing Boston Center
04:39PM 41.5272 -72.4650 292° West 181 208 6,000 -60 Descending Boston Center
04:41PM 41.5000 -72.6167 257° West 185 213 6,000  Level New York TRACON
04:42PM 41.4833 -72.6833 252° West 190 219 6,000  Level New York TRACON
04:43PM 41.4667 -72.7500 252° West 188 216 6,000  Level New York TRACON
04:44PM 41.4500 -72.8167 252° West 189 217 6,000  Level New York TRACON
04:45PM 41.4333 -72.8833 252° West 190 219 6,000  Level New York TRACON
04:46PM 41.4167 -72.9500 252° West 193 222 6,000  Level New York TRACON
04:47PM 41.4000 -73.0167 252° West 191 220 6,000  Level New York TRACON
04:48PM 41.3833 -73.0833 252° West 193 222 6,000  Level New York TRACON
04:49PM 41.3833 -73.1500 270° West 196 226 6,000  Level New York TRACON
04:50PM 41.3667 -73.2167 252° West 191 220 6,000  Level New York TRACON
04:51PM 41.3500 -73.2833 252° West 192 221 6,000  Level New York TRACON
04:52PM 41.3333 -73.3667 255° West 194 223 6,000  Level New York TRACON
04:53PM 41.3167 -73.4333 252° West 190 219 6,000 -240 Level New York TRACON
04:54PM 41.3000 -73.5000 252° West 198 228 5,600 -540 Descending New York TRACON
04:55PM 41.2833 -73.5667 252° West 207 238 5,000 -300 Descending New York TRACON
04:56PM 41.2667 -73.6333 252° West 194 223 5,000  Level New York TRACON
04:57PM 41.2667 -73.7000 270° West 188 216 5,000  Level New York TRACON
04:58PM 41.2667 -73.7833 270° West 190 219 5,000  Level New York TRACON
04:59PM 41.2500 -73.8333 246° West 190 219 5,000  Level New York TRACON
05:00PM 41.2500 -73.9167 270° West 189 217 5,000  Level New York TRACON
05:01PM 41.2333 -73.9833 252° West 192 221 5,000 -60 Level New York TRACON
05:02PM 41.2167 -74.0500 252° West 192 221 4,900 -480 Descending New York TRACON
05:03PM 41.2000 -74.1167 252° West 215 247 4,100 -300 Descending New York TRACON
05:05PM 41.1167 -74.2167 222° Southwest 192 221 4,000 -60 Descending New York TRACON
05:06PM 41.0833 -74.2667 229° Southwest 186 214 4,000 -60 Level New York TRACON
05:08PM 41.0000 -74.3500 217° Southwest 188 216 3,900 -180 Descending New York TRACON
05:09PM 40.9500 -74.3833 207° Southwest 196 226 3,600 -480 Descending New York TRACON
05:10PM 40.9000 -74.4167 207° Southwest 205 236 3,000 -720 Descending New York TRACON
05:11PM 40.8500 -74.4333 194° South 194 223 2,200 -540 Descending New York TRACON
05:12PM 40.8000 -74.4500 194° South 174 200 2,000 -120 Descending New York TRACON
05:13PM 40.7667 -74.4333 159° South 155 178 2,000  Level New York TRACON
05:15PM 40.7667 -74.3667 90° East 125 144 2,000  Level New York TRACON
05:16PM 40.7833 -74.3500 37° Northeast 112 129 2,000 -300 Level New York TRACON
05:17PM 40.8167 -74.3333 21° North 105 121 1,400 -540 Descending New York TRACON
05:18PM 40.8333 -74.3167 37° Northeast 105 121 1,000 -420 Descending New York TRACON
05:20PM 40.8667 -74.2667 37° Northeast  Level FlightAware Approximate
05:27PM 40.8752 -74.2814 37° Northeast  Level Estimated
05:28PM 40.8752 -74.2814 37° Northeast  Level Estimated
05:29PM 40.8752 -74.2814 37° Northeast  Level Estimated